createdAt,value
2022-11-29T00:03:35.523Z,7.55
2022-11-29T00:07:17.486Z,8.25
2022-11-29T00:11:04.933Z,7.55
2022-11-29T00:14:47.108Z,6.85
2022-11-29T00:18:29.099Z,7.40
2022-11-29T00:22:11.166Z,7.10
2022-11-29T00:25:54.354Z,7.10
2022-11-29T00:29:36.358Z,7.07
2022-11-29T00:33:18.258Z,6.18
2022-11-29T00:37:00.159Z,5.80
2022-11-29T00:40:42.101Z,5.75
2022-11-29T00:44:24.083Z,5.38
2022-11-29T00:48:06.276Z,5.82
2022-11-29T00:51:48.145Z,7.30
2022-11-29T00:55:30.015Z,7.85
2022-11-29T00:59:11.874Z,6.32
2022-11-29T01:02:53.984Z,5.80
2022-11-29T01:06:35.893Z,5.65
2022-11-29T01:10:17.907Z,5.10
2022-11-29T01:14:01.713Z,6.10
2022-11-29T01:17:43.815Z,5.72
2022-11-29T01:21:25.779Z,5.50
2022-11-29T01:25:08.969Z,5.53
2022-11-29T01:28:53.122Z,7.20
2022-11-29T01:32:36.368Z,7.25
2022-11-29T01:36:18.328Z,6.80
2022-11-29T01:40:00.201Z,7.63
2022-11-29T01:44:14.491Z,7.45
2022-11-29T01:47:57.594Z,12.10
2022-11-29T01:51:42.372Z,6.97
2022-11-29T01:55:24.343Z,7.40
2022-11-29T01:59:14.602Z,11.10
2022-11-29T02:03:02.214Z,7.40
2022-11-29T02:06:44.718Z,7.05
2022-11-29T02:10:43.747Z,6.70
2022-11-29T02:14:55.805Z,6.57
2022-11-29T02:18:53.867Z,6.45
2022-11-29T02:22:46.476Z,6.20
2022-11-29T02:26:40.459Z,6.18
2022-11-29T02:30:57.861Z,7.65
2022-11-29T02:35:06.089Z,6.97
2022-11-29T02:39:03.135Z,7.32
2022-11-29T02:43:06.136Z,7.90
2022-11-29T02:47:36.871Z,8.93
2022-11-29T02:51:34.839Z,7.30
2022-11-29T02:55:20.497Z,6.57
2022-11-29T02:59:40.154Z,7.03
2022-11-29T03:03:35.718Z,7.40
2022-11-29T03:08:00.809Z,7.65
2022-11-29T03:11:50.832Z,6.75
2022-11-29T03:15:46.561Z,6.63
2022-11-29T03:19:49.527Z,6.95
2022-11-29T03:24:00.243Z,6.38
2022-11-29T03:27:50.867Z,6.53
2022-11-29T03:31:38.956Z,5.88
2022-11-29T03:39:07.591Z,6.60
2022-11-29T03:43:06.365Z,8.50
2022-11-29T03:47:09.364Z,5.95
2022-11-29T03:50:56.484Z,5.65
2022-11-29T03:54:59.922Z,6.70
2022-11-29T03:59:14.895Z,5.75
2022-11-29T04:03:08.202Z,7.10
2022-11-29T04:07:01.918Z,7.90
2022-11-29T04:10:43.751Z,7.00
2022-11-29T04:14:34.978Z,7.82
2022-11-29T04:18:31.583Z,7.20
2022-11-29T04:23:12.059Z,6.50
2022-11-29T04:27:14.167Z,8.82
2022-11-29T04:31:12.771Z,7.68
2022-11-29T04:35:31.923Z,5.70
2022-11-29T04:39:42.779Z,4.65
2022-11-29T04:43:41.469Z,4.47
2022-11-29T04:47:55.624Z,4.22
2022-11-29T04:52:02.002Z,4.03
2022-11-29T04:55:52.352Z,3.60
2022-11-29T04:59:53.787Z,4.00
2022-11-29T05:04:02.492Z,4.40
2022-11-29T05:08:23.086Z,4.55
2022-11-29T05:12:29.544Z,5.03
2022-11-29T05:16:41.990Z,4.50
2022-11-29T05:20:23.893Z,4.55
2022-11-29T05:24:33.622Z,5.15
2022-11-29T05:28:38.049Z,4.85
2022-11-29T05:32:30.392Z,4.75
2022-11-29T05:36:49.693Z,4.20
2022-11-29T05:44:39.009Z,4.53
2022-11-29T05:48:46.642Z,4.40
2022-11-29T05:53:05.123Z,5.28
2022-11-29T05:56:57.755Z,6.40
2022-11-29T06:01:03.664Z,5.43
2022-11-29T06:05:11.592Z,5.50
2022-11-29T06:09:09.014Z,5.10
2022-11-29T06:13:11.279Z,5.65
2022-11-29T06:17:02.374Z,5.70
2022-11-29T06:20:44.209Z,5.38
2022-11-29T06:24:56.543Z,5.53
2022-11-29T06:29:03.415Z,5.50
2022-11-29T06:33:21.489Z,5.25
2022-11-29T06:37:20.106Z,6.18
2022-11-29T06:41:02.733Z,10.00
2022-11-29T06:44:45.199Z,6.75
2022-11-29T06:48:34.514Z,7.90
2022-11-29T06:52:45.240Z,8.38
2022-11-29T06:57:00.180Z,9.13
2022-11-29T07:00:48.645Z,9.57
2022-11-29T07:04:33.284Z,13.07
2022-11-29T07:08:21.796Z,8.98
2022-11-29T07:12:04.200Z,9.27
2022-11-29T07:15:54.604Z,9.90
2022-11-29T07:19:48.156Z,9.82
2022-11-29T07:23:45.348Z,9.70
2022-11-29T07:27:30.174Z,9.50
2022-11-29T07:31:40.768Z,8.02
2022-11-29T07:35:38.713Z,9.82
2022-11-29T07:39:35.597Z,11.55
2022-11-29T07:43:26.261Z,12.27
2022-11-29T07:47:09.029Z,11.15
2022-11-29T07:50:50.906Z,10.50
2022-11-29T07:54:32.885Z,12.18
2022-11-29T07:58:16.595Z,11.75
2022-11-29T08:01:59.392Z,12.32
2022-11-29T08:05:46.443Z,12.25
2022-11-29T08:09:28.390Z,14.85
2022-11-29T08:13:10.381Z,11.88
2022-11-29T08:16:52.370Z,12.90
2022-11-29T08:20:34.304Z,11.98
2022-11-29T08:24:16.215Z,12.18
2022-11-29T08:27:58.076Z,11.20
2022-11-29T08:31:40.197Z,11.60
2022-11-29T08:35:23.730Z,11.88
2022-11-29T08:39:09.297Z,11.63
2022-11-29T08:42:51.505Z,10.52
2022-11-29T08:46:52.353Z,11.50
2022-11-29T08:50:34.403Z,12.23
2022-11-29T08:54:16.476Z,10.90
2022-11-29T08:58:06.975Z,11.27
2022-11-29T09:01:49.021Z,10.57
2022-11-29T09:05:30.933Z,10.88
2022-11-29T09:09:12.834Z,12.10
2022-11-29T09:12:55.379Z,12.45
2022-11-29T09:16:38.496Z,7.97
2022-11-29T09:20:20.793Z,10.20
2022-11-29T09:24:06.306Z,7.70
2022-11-29T09:27:48.184Z,8.27
2022-11-29T09:31:31.385Z,8.00
2022-11-29T09:35:13.367Z,7.00
2022-11-29T09:38:55.320Z,6.25
2022-11-29T09:42:40.159Z,7.05
2022-11-29T09:46:22.209Z,6.70
2022-11-29T09:50:23.070Z,7.05
2022-11-29T09:54:26.199Z,6.18
2022-11-29T09:58:14.067Z,6.90
2022-11-29T10:02:14.924Z,7.13
2022-11-29T10:06:25.219Z,7.00
2022-11-29T10:10:16.397Z,7.78
2022-11-29T10:14:11.922Z,7.85
2022-11-29T10:18:18.922Z,8.35
2022-11-29T10:22:08.172Z,8.00
2022-11-29T10:25:57.872Z,7.03
2022-11-29T10:29:39.956Z,6.70
2022-11-29T10:33:30.682Z,6.00
2022-11-29T10:37:19.921Z,6.60
2022-11-29T10:41:07.909Z,6.72
2022-11-29T10:44:49.808Z,9.05
2022-11-29T10:48:34.106Z,7.43
2022-11-29T10:52:21.407Z,6.22
2022-11-29T10:56:14.563Z,6.80
2022-11-29T11:00:07.301Z,7.43
2022-11-29T11:03:57.685Z,9.43
2022-11-29T11:07:39.670Z,8.23
2022-11-29T11:11:32.887Z,8.32
2022-11-29T11:15:26.577Z,7.20
2022-11-29T11:19:27.841Z,7.15
2022-11-29T11:23:29.916Z,7.00
2022-11-29T11:27:12.035Z,7.13
2022-11-29T11:30:57.726Z,7.18
2022-11-29T11:34:50.480Z,5.38
2022-11-29T11:38:34.541Z,7.15
2022-11-29T11:42:39.468Z,6.97
2022-11-29T11:46:21.757Z,7.88
2022-11-29T11:50:06.892Z,7.70
2022-11-29T11:53:55.575Z,10.45
2022-11-29T11:57:37.569Z,7.60
2022-11-29T12:01:45.677Z,7.63
2022-11-29T12:05:27.575Z,8.07
2022-11-29T12:09:10.002Z,6.60
2022-11-29T12:12:53.600Z,8.27
2022-11-29T12:16:38.973Z,6.35
2022-11-29T12:20:35.852Z,6.88
2022-11-29T12:24:41.606Z,6.90
2022-11-29T12:28:30.476Z,6.13
2022-11-29T12:32:12.353Z,7.20
2022-11-29T12:35:57.292Z,6.28
2022-11-29T12:39:44.753Z,6.35
2022-11-29T12:44:05.315Z,6.75
2022-11-29T12:48:13.676Z,6.72
2022-11-29T12:52:34.555Z,6.55
2022-11-29T12:56:25.951Z,5.97
2022-11-29T13:00:19.013Z,6.18
2022-11-29T13:04:03.985Z,7.57
2022-11-29T13:08:04.064Z,8.00
2022-11-29T13:12:19.706Z,7.72
2022-11-29T13:16:30.682Z,6.82
2022-11-29T13:20:34.797Z,6.95
2022-11-29T13:24:25.739Z,7.10
2022-11-29T13:28:25.127Z,6.35
2022-11-29T13:32:14.743Z,6.60
2022-11-29T13:36:13.746Z,6.15
2022-11-29T13:40:00.644Z,6.47
2022-11-29T13:43:51.920Z,7.07
2022-11-29T13:47:59.139Z,6.55
2022-11-29T13:51:41.456Z,6.32
2022-11-29T13:55:29.465Z,6.32
2022-11-29T14:03:24.978Z,5.80
2022-11-29T14:07:18.515Z,6.07
2022-11-29T14:11:14.567Z,11.82
2022-11-29T14:15:11.501Z,6.32
2022-11-29T14:19:08.402Z,5.90
2022-11-29T14:23:05.343Z,7.15
2022-11-29T14:26:47.515Z,7.45
2022-11-29T14:30:49.771Z,7.40
2022-11-29T14:34:35.128Z,14.10
2022-11-29T14:38:20.200Z,8.15
2022-11-29T14:42:06.278Z,8.65
2022-11-29T14:46:06.419Z,8.63
2022-11-29T14:49:48.483Z,9.68
2022-11-29T14:53:35.722Z,9.43
2022-11-29T14:57:48.462Z,9.00
2022-11-29T15:01:30.707Z,8.07
2022-11-29T15:05:34.491Z,8.93
2022-11-29T15:09:20.687Z,7.72
2022-11-29T15:13:04.141Z,8.00
2022-11-29T15:16:46.093Z,6.72
2022-11-29T15:27:56.821Z,7.30
2022-11-29T15:31:42.166Z,7.70
2022-11-29T15:35:24.652Z,12.95
2022-11-29T15:39:44.521Z,7.47
2022-11-29T15:43:38.124Z,7.00
2022-11-29T15:52:05.699Z,8.02
2022-11-29T15:55:50.621Z,7.68
2022-11-29T15:59:35.516Z,10.43
2022-11-29T16:03:25.212Z,9.20
2022-11-29T16:07:07.360Z,9.77
2022-11-29T16:10:53.094Z,8.75
2022-11-29T16:14:35.114Z,8.43
2022-11-29T16:18:25.458Z,7.78
2022-11-29T16:22:25.851Z,8.55
2022-11-29T16:26:10.745Z,9.88
2022-11-29T16:29:55.159Z,9.85
2022-11-29T16:33:38.443Z,9.68
2022-11-29T16:37:28.783Z,8.68
2022-11-29T16:41:34.992Z,9.60
2022-11-29T16:45:29.151Z,11.38
2022-11-29T16:49:31.869Z,11.43
2022-11-29T16:53:36.417Z,9.70
2022-11-29T16:57:18.794Z,10.55
2022-11-29T17:01:15.203Z,10.38
2022-11-29T17:04:58.183Z,9.10
2022-11-29T17:08:40.124Z,9.50
2022-11-29T17:12:22.328Z,9.02
2022-11-29T17:16:04.624Z,8.82
2022-11-29T17:19:46.517Z,8.48
2022-11-29T17:23:28.427Z,8.77
2022-11-29T17:27:10.367Z,7.60
2022-11-29T17:30:52.928Z,7.63
2022-11-29T17:34:35.259Z,8.75
2022-11-29T17:38:17.225Z,6.82
2022-11-29T17:41:59.066Z,7.70
2022-11-29T17:45:40.985Z,6.78
2022-11-29T17:49:23.122Z,5.88
2022-11-29T17:53:05.709Z,6.40
2022-11-29T17:56:47.586Z,7.03
2022-11-29T18:00:29.511Z,7.30
2022-11-29T18:04:11.519Z,11.13
2022-11-29T18:07:59.261Z,9.85
2022-11-29T18:11:48.958Z,7.90
2022-11-29T18:15:33.026Z,9.05
2022-11-29T18:19:17.338Z,8.65
2022-11-29T18:23:03.627Z,9.85
2022-11-29T18:26:48.455Z,9.48
2022-11-29T18:30:30.402Z,9.68
2022-11-29T18:34:14.084Z,9.45
2022-11-29T18:38:14.626Z,9.25
2022-11-29T18:41:57.445Z,19.60
2022-11-29T18:45:39.503Z,11.00
2022-11-29T18:49:22.434Z,11.15
2022-11-29T18:53:04.291Z,12.18
2022-11-29T18:56:46.611Z,12.90
2022-11-29T19:00:28.555Z,11.05
2022-11-29T19:04:13.545Z,9.80
2022-11-29T19:07:55.560Z,10.10
2022-11-29T19:11:37.473Z,9.38
2022-11-29T19:15:19.373Z,9.85
2022-11-29T19:19:02.130Z,9.65
2022-11-29T19:22:44.078Z,11.57
2022-11-29T19:26:28.115Z,15.57
2022-11-29T19:30:10.637Z,13.30
2022-11-29T19:33:53.958Z,12.27
2022-11-29T19:37:35.865Z,12.25
2022-11-29T19:41:19.004Z,11.57
2022-11-29T19:45:16.555Z,12.00
2022-11-29T19:49:00.494Z,11.40
2022-11-29T19:52:42.330Z,13.90
2022-11-29T19:56:24.652Z,12.27
2022-11-29T20:00:07.499Z,15.85
2022-11-29T20:03:50.371Z,13.85
2022-11-29T20:07:32.324Z,14.05
2022-11-29T20:11:19.781Z,13.25
2022-11-29T20:15:01.701Z,11.73
2022-11-29T20:18:50.641Z,13.48
2022-11-29T20:22:33.193Z,10.90
2022-11-29T20:26:17.886Z,13.95
2022-11-29T20:29:59.780Z,11.30
2022-11-29T20:33:43.191Z,11.00
2022-11-29T20:37:37.099Z,11.82
2022-11-29T20:41:33.097Z,11.50
2022-11-29T20:45:15.903Z,13.50
2022-11-29T20:49:03.127Z,12.00
2022-11-29T20:52:52.087Z,12.68
2022-11-29T20:56:33.969Z,13.05
2022-11-29T21:00:16.167Z,21.30
2022-11-29T21:03:58.159Z,13.82
2022-11-29T21:07:40.159Z,14.30
2022-11-29T21:11:22.352Z,14.20
2022-11-29T21:15:04.782Z,13.48
2022-11-29T21:18:48.762Z,12.93
2022-11-29T21:23:03.670Z,12.88
2022-11-29T21:26:51.347Z,13.05
2022-11-29T21:30:33.387Z,13.02
2022-11-29T21:34:15.438Z,13.07
2022-11-29T21:38:00.812Z,13.43
2022-11-29T21:41:42.996Z,11.50
2022-11-29T21:45:24.885Z,13.50
2022-11-29T21:49:06.846Z,12.77
2022-11-29T21:52:52.377Z,12.10
2022-11-29T21:56:34.308Z,12.68
2022-11-29T22:00:16.597Z,13.48
2022-11-29T22:03:58.478Z,11.18
2022-11-29T22:07:40.419Z,11.90
2022-11-29T22:11:36.452Z,11.35
2022-11-29T22:15:24.220Z,10.77
2022-11-29T22:19:06.863Z,11.50
2022-11-29T22:22:48.952Z,12.55
2022-11-29T22:26:30.931Z,13.70
2022-11-29T22:30:13.082Z,14.15
2022-11-29T22:33:56.015Z,11.45
2022-11-29T22:37:37.909Z,12.43
2022-11-29T22:41:19.859Z,12.73
2022-11-29T22:45:04.095Z,12.15
2022-11-29T22:48:47.973Z,14.73
2022-11-29T22:52:29.806Z,13.05
2022-11-29T22:56:12.245Z,12.90
2022-11-29T22:59:54.198Z,13.07
2022-11-29T23:03:37.760Z,12.73
2022-11-29T23:07:19.644Z,12.43
2022-11-29T23:11:04.360Z,13.52
2022-11-29T23:14:49.187Z,13.43
2022-11-29T23:18:34.125Z,12.63
2022-11-29T23:22:16.129Z,13.13
2022-11-29T23:25:58.553Z,13.48
2022-11-29T23:29:40.528Z,13.50
2022-11-29T23:33:23.571Z,13.57
2022-11-29T23:37:05.445Z,13.40
2022-11-29T23:40:47.410Z,13.25
2022-11-29T23:44:29.270Z,13.60
2022-11-29T23:48:11.124Z,14.35
2022-11-29T23:51:53.007Z,14.77
2022-11-29T23:55:34.862Z,13.77
2022-11-29T23:59:16.885Z,14.77
